Berwick, Louisiana
Current Conditions -  °F | °C
As of 9:55 PM on Saturday 24 Jan 2015 (Local Time) from KPTN Reporting Station
Clear Clear  
Wind Chill: 43°   Ceiling: Unl
Heat Index: 43°   Visibility: 10mi
Dew Point: 39°   Wind: 3mph
Humidity: 87%   Direction: 230°SW
Pressure: 30.12"   Gusts: NA
Location:  29.69°N, 91.22°W
Report Text: KPTN 250355Z AUTO 23003KT 10SM CLR 06/04 A3012 RMK AO1
Loading
Personal Weather Stations






























Interactive Weather Map New forecast layout! Learn more

10-Day Weather Forecast

Advertisements
Track Severe Weather on mobile